Time;durP1;ratioP1;P1;durP2;ratioP2;P2;SDS_P1;SDS_P2;PMS_P1;PMS_P2;Temp;Humidity;BMP_temperature;BMP_pressure;BME280_temperature;BME280_humidity;BME280_pressure;Samples;Min_cycle;Max_cycle;Signal;HPM_P1;HPM_P2
2023/01/02 00:02:26;;;;;;;9.30;6.10;;;;;;;9.58;nan;99660.88;6133924;23;20171;-84
2023/01/02 00:04:52;;;;;;;11.07;6.07;;;;;;;9.52;nan;99662.06;6133995;23;20160;-84
2023/01/02 00:07:18;;;;;;;9.20;5.00;;;;;;;9.48;nan;99652.72;6124686;23;20152;-85
2023/01/02 00:09:43;;;;;;;8.50;5.70;;;;;;;9.46;nan;99658.03;6123041;23;20230;-84
2023/01/02 00:12:08;;;;;;;9.73;5.20;;;;;;;9.44;nan;99662.50;6123600;23;20180;-84
2023/01/02 00:14:34;;;;;;;7.23;5.27;;;;;;;9.42;nan;99656.50;6122306;23;20237;-86
2023/01/02 00:16:59;;;;;;;7.73;5.47;;;;;;;9.39;nan;99645.38;6122919;23;20651;-85
2023/01/02 00:19:25;;;;;;;9.13;5.50;;;;;;;9.38;nan;99647.16;6123284;23;20179;-85
2023/01/02 00:21:52;;;;;;;8.65;5.30;;;;;;;9.36;nan;99650.78;6122959;23;20172;-85
2023/01/02 00:24:17;;;;;;;7.57;5.13;;;;;;;9.36;nan;99645.56;6096610;23;20401;-84
2023/01/02 00:26:42;;;;;;;12.10;5.30;;;;;;;9.35;nan;99638.63;6122328;23;20203;-84
2023/01/02 00:29:08;;;;;;;7.20;5.00;;;;;;;9.33;nan;99638.69;6122820;23;20156;-85
2023/01/02 00:31:33;;;;;;;5.10;4.60;;;;;;;9.34;nan;99640.38;6122837;23;20160;-86
2023/01/02 00:33:59;;;;;;;7.90;5.53;;;;;;;9.36;nan;99645.56;6122681;23;20152;-85
2023/01/02 00:36:26;;;;;;;9.40;5.40;;;;;;;9.38;nan;99649.78;6123953;23;20606;-84
2023/01/02 00:38:56;;;;;;;10.18;5.60;;;;;;;9.43;nan;99647.72;6123443;23;20172;-84
2023/01/02 00:41:22;;;;;;;7.60;5.10;;;;;;;9.45;nan;99640.63;6123423;23;20200;-85
2023/01/02 00:43:47;;;;;;;6.23;5.73;;;;;;;9.49;nan;99638.66;6123530;23;20158;-85
2023/01/02 00:46:13;;;;;;;8.43;5.10;;;;;;;9.52;nan;99641.94;6124223;23;20397;-86
2023/01/02 00:48:38;;;;;;;5.63;5.03;;;;;;;9.53;nan;99633.16;6125291;23;20187;-85
2023/01/02 00:51:04;;;;;;;7.87;5.53;;;;;;;9.53;nan;99638.41;6125190;23;20653;-85
2023/01/02 00:53:29;;;;;;;9.07;4.90;;;;;;;9.52;nan;99633.22;6125981;23;20391;-85
2023/01/02 00:55:55;;;;;;;7.70;5.23;;;;;;;9.50;nan;99632.47;6146906;23;20591;-86
2023/01/02 00:58:20;;;;;;;7.90;4.97;;;;;;;9.45;nan;99643.25;6154492;23;20151;-85
2023/01/02 01:00:46;;;;;;;12.87;5.40;;;;;;;9.44;nan;99638.91;6155432;23;20221;-84
2023/01/02 01:03:11;;;;;;;5.80;5.13;;;;;;;9.39;nan;99638.34;6155336;23;20159;-84
2023/01/02 01:05:39;;;;;;;13.33;5.20;;;;;;;9.33;nan;99641.31;6155308;23;20155;-86
2023/01/02 01:08:05;;;;;;;7.65;5.32;;;;;;;9.27;nan;99639.06;6155704;23;20167;-84
2023/01/02 01:10:31;;;;;;;7.78;5.20;;;;;;;9.23;nan;99648.88;6154423;23;20630;-84
2023/01/02 01:12:56;;;;;;;6.10;4.83;;;;;;;9.23;nan;99645.41;6155355;23;20567;-86
2023/01/02 01:15:21;;;;;;;10.03;5.93;;;;;;;9.20;nan;99645.59;6154411;23;20263;-85
2023/01/02 01:17:47;;;;;;;8.87;6.10;;;;;;;9.19;nan;99647.38;6153021;23;20627;-85
2023/01/02 01:20:12;;;;;;;10.67;5.03;;;;;;;9.17;nan;99637.91;6153110;23;20179;-86
2023/01/02 01:22:38;;;;;;;6.47;4.80;;;;;;;9.14;nan;99638.91;6151560;23;20162;-85
2023/01/02 01:25:04;;;;;;;5.17;4.00;;;;;;;9.10;nan;99645.28;6153288;23;20156;-84
2023/01/02 01:27:29;;;;;;;6.53;4.93;;;;;;;9.08;nan;99641.91;6152203;23;20159;-84
2023/01/02 01:29:55;;;;;;;6.33;4.70;;;;;;;9.09;nan;99649.66;6152321;23;20589;-83
2023/01/02 01:32:20;;;;;;;8.17;5.67;;;;;;;9.12;nan;99647.78;6153375;23;20689;-84
2023/01/02 01:34:45;;;;;;;6.00;4.33;;;;;;;9.13;nan;99644.22;6152344;23;20159;-84
2023/01/02 01:37:11;;;;;;;5.90;5.23;;;;;;;9.10;nan;99634.81;6152262;23;20194;-84
2023/01/02 01:39:37;;;;;;;7.00;4.38;;;;;;;9.07;nan;99638.44;6150419;23;20171;-84
2023/01/02 01:42:03;;;;;;;5.47;4.80;;;;;;;9.07;nan;99651.53;6151595;23;20158;-85
2023/01/02 01:44:47;;;;;;;8.03;4.53;;;;;;;9.06;nan;99641.97;6151304;23;20386;-84
2023/01/02 01:47:31;;;;;;;6.18;4.00;;;;;;;9.05;nan;99652.56;6150968;23;20191;-84
2023/01/02 01:50:01;;;;;;;5.38;3.85;;;;;;;9.03;nan;99650.00;6152997;23;20183;-84
2023/01/02 01:52:30;;;;;;;5.53;4.97;;;;;;;8.98;nan;99652.03;6154012;23;20627;-84
2023/01/02 01:55:04;;;;;;;11.73;4.95;;;;;;;8.94;nan;99653.16;6151786;23;20215;-83
2023/01/02 01:57:42;;;;;;;9.30;4.88;;;;;;;8.91;nan;99650.72;6153727;23;20178;-84
2023/01/02 02:00:08;;;;;;;7.55;4.47;;;;;;;8.87;nan;99646.56;6154225;23;20773;-84
2023/01/02 02:02:35;;;;;;;5.25;4.13;;;;;;;8.80;nan;99650.44;6152958;23;20151;-84
2023/01/02 02:05:04;;;;;;;6.22;5.57;;;;;;;8.74;nan;99637.69;6153657;23;20159;-82
2023/01/02 02:07:31;;;;;;;6.78;4.35;;;;;;;8.67;nan;99638.97;6154196;23;20170;-83
2023/01/02 02:10:06;;;;;;;7.25;4.18;;;;;;;8.66;nan;99650.38;6156392;23;20179;-83
2023/01/02 02:12:33;;;;;;;6.90;4.60;;;;;;;8.61;nan;99643.63;6154218;23;20248;-85
2023/01/02 02:14:58;;;;;;;9.82;5.30;;;;;;;8.59;nan;99640.25;6158239;23;20167;-85
2023/01/02 02:17:51;;;;;;;5.03;4.17;;;;;;;8.57;nan;99636.84;6157889;23;20167;-85
2023/01/02 02:20:32;;;;;;;6.07;4.95;;;;;;;8.51;nan;99637.22;6153450;23;20171;-85
2023/01/02 02:23:28;;;;;;;5.85;4.00;;;;;;;8.47;nan;99637.44;6153519;23;20186;-85
2023/01/02 02:26:29;;;;;;;6.85;4.85;;;;;;;8.46;nan;99644.47;6153906;23;20456;-84
2023/01/02 02:29:26;;;;;;;5.25;3.92;;;;;;;8.43;nan;99628.94;6153864;23;20198;-86
2023/01/02 02:32:16;;;;;;;7.15;4.82;;;;;;;8.44;nan;99622.75;6153127;23;20393;-85
2023/01/02 02:35:06;;;;;;;5.20;4.65;;;;;;;8.43;nan;99622.84;6154250;23;20491;-85
2023/01/02 02:37:42;;;;;;;8.98;5.10;;;;;;;8.40;nan;99622.09;6154138;23;20166;-85
2023/01/02 02:40:45;;;;;;;12.50;6.45;;;;;;;8.41;nan;99625.53;6153900;23;20198;-85
2023/01/02 02:43:50;;;;;;;15.50;6.80;;;;;;;8.39;nan;99627.38;6154717;23;20168;-85
2023/01/02 02:46:26;;;;;;;9.00;6.55;;;;;;;8.39;nan;99637.84;6154952;23;20397;-85
2023/01/02 02:49:07;;;;;;;9.55;5.22;;;;;;;8.43;nan;99628.94;6155467;23;20161;-85
2023/01/02 02:51:55;;;;;;;10.23;6.07;;;;;;;8.44;nan;99627.16;6158996;23;20200;-85
2023/01/02 02:54:28;;;;;;;10.07;6.07;;;;;;;8.45;nan;99629.66;6170456;23;20165;-84
2023/01/02 02:56:55;;;;;;;9.05;5.40;;;;;;;8.45;nan;99621.81;6171076;23;20342;-85
2023/01/02 02:59:21;;;;;;;10.48;5.38;;;;;;;8.45;nan;99621.81;6171845;23;20184;-85
2023/01/02 03:01:47;;;;;;;5.50;4.47;;;;;;;8.46;nan;99626.13;6168473;23;20173;-85
2023/01/02 03:04:20;;;;;;;6.63;4.30;;;;;;;8.46;nan;99626.13;6151643;23;20157;-85
2023/01/02 03:07:07;;;;;;;6.72;4.05;;;;;;;8.49;nan;99618.13;6153438;23;20157;-85
2023/01/02 03:09:49;;;;;;;5.93;3.72;;;;;;;8.49;nan;99617.28;6157656;23;20188;-84
2023/01/02 03:12:23;;;;;;;7.10;4.00;;;;;;;8.48;nan;99616.44;5739416;23;10000327;-85
2023/01/02 03:15:10;;;;;;;4.75;3.92;;;;;;;8.49;nan;99625.97;6157575;23;20201;-85
2023/01/02 03:18:02;;;;;;;5.13;3.88;;;;;;;8.49;nan;99620.72;6163384;23;20177;-85
2023/01/02 03:20:35;;;;;;;7.00;4.43;;;;;;;8.49;nan;99622.50;6172833;23;20369;-85
2023/01/02 03:23:06;;;;;;;4.45;3.90;;;;;;;8.48;nan;99619.06;6173248;23;20169;-85
2023/01/02 03:25:35;;;;;;;7.80;5.78;;;;;;;8.49;nan;99618.13;6173869;23;20156;-84
2023/01/02 03:28:06;;;;;;;9.98;4.72;;;;;;;8.50;nan;99618.94;6168339;23;20234;-85
2023/01/02 03:30:34;;;;;;;5.65;3.75;;;;;;;8.50;nan;99608.47;6163884;23;20304;-85
2023/01/02 03:33:04;;;;;;;8.63;4.45;;;;;;;8.48;nan;99605.97;6152428;23;20157;-85
2023/01/02 03:35:39;;;;;;;5.47;4.70;;;;;;;8.50;nan;99608.47;6151443;23;20210;-85
2023/01/02 03:38:09;;;;;;;6.65;4.63;;;;;;;8.53;nan;99601.31;6152659;23;20167;-85
2023/01/02 03:40:41;;;;;;;9.75;4.40;;;;;;;8.56;nan;99613.38;6132319;23;20260;-85
2023/01/02 03:43:16;;;;;;;8.10;4.55;;;;;;;8.59;nan;99602.75;6128679;23;20162;-85
2023/01/02 03:46:23;;;;;;;5.72;4.72;;;;;;;8.63;nan;99615.56;6125112;23;20161;-85
2023/01/02 03:48:52;;;;;;;4.82;4.13;;;;;;;8.66;nan;99603.25;6123546;23;20171;-85
2023/01/02 03:51:18;;;;;;;6.22;3.67;;;;;;;8.67;nan;99605.78;6122961;23;20224;-85
2023/01/02 03:53:45;;;;;;;9.90;4.72;;;;;;;8.67;nan;99605.78;6124109;23;20166;-85
2023/01/02 03:56:35;;;;;;;8.13;5.07;;;;;;;8.68;nan;99604.00;6124756;23;20164;-85
2023/01/02 03:59:07;;;;;;;14.23;4.82;;;;;;;8.69;nan;99610.91;6125933;23;20214;-85
2023/01/02 04:01:56;;;;;;;8.05;5.43;;;;;;;8.68;nan;99609.25;6128460;23;20174;-85
2023/01/02 04:04:37;;;;;;;8.82;4.60;;;;;;;8.69;nan;99603.91;6099577;23;20401;-85
2023/01/02 04:07:09;;;;;;;9.75;4.43;;;;;;;8.69;nan;99609.16;6128993;23;20160;-84
2023/01/02 04:09:37;;;;;;;5.68;4.07;;;;;;;8.65;nan;99605.03;6127674;23;20604;-85
2023/01/02 04:12:09;;;;;;;7.20;4.45;;;;;;;8.66;nan;99611.94;6127512;23;20200;-85
2023/01/02 04:14:45;;;;;;;4.78;4.22;;;;;;;8.67;nan;99611.03;6101729;23;20229;-84
2023/01/02 04:17:13;;;;;;;5.45;3.30;;;;;;;8.67;nan;99618.00;6102013;23;20174;-85
2023/01/02 04:20:05;;;;;;;3.70;3.35;;;;;;;8.66;nan;99618.94;6127446;23;20171;-84
2023/01/02 04:22:37;;;;;;;5.22;3.70;;;;;;;8.67;nan;99616.25;6102583;23;20250;-84
2023/01/02 04:25:12;;;;;;;12.10;7.15;;;;;;;8.67;nan;99615.41;6129101;23;20172;-84
2023/01/02 04:27:50;;;;;;;6.03;4.28;;;;;;;8.68;nan;99617.09;6152048;23;20275;-85
2023/01/02 04:30:16;;;;;;;4.10;2.88;;;;;;;8.64;nan;99613.78;6102123;23;20381;-85
2023/01/02 04:32:44;;;;;;;5.80;3.30;;;;;;;8.68;nan;99615.31;6102562;23;20166;-85
2023/01/02 04:35:17;;;;;;;5.63;3.55;;;;;;;8.72;nan;99611.63;6128889;23;20162;-84
2023/01/02 04:37:43;;;;;;;5.78;3.75;;;;;;;8.75;nan;99611.44;6102547;23;20169;-84
2023/01/02 04:40:20;;;;;;;5.93;3.90;;;;;;;8.77;nan;99614.78;6128503;23;20170;-84
2023/01/02 04:42:46;;;;;;;3.65;3.10;;;;;;;8.77;nan;99608.72;6128311;23;20548;-85
2023/01/02 04:45:12;;;;;;;6.47;3.40;;;;;;;8.75;nan;99607.94;6127109;23;20163;-85
2023/01/02 04:47:39;;;;;;;4.18;2.83;;;;;;;8.74;nan;99601.03;6127023;23;20679;-85
2023/01/02 04:50:05;;;;;;;3.65;2.90;;;;;;;8.74;nan;99611.50;6126340;23;20166;-85
2023/01/02 04:52:31;;;;;;;3.92;2.80;;;;;;;8.75;nan;99608.81;6064731;23;20262;-85
2023/01/02 04:54:56;;;;;;;4.60;3.50;;;;;;;8.74;nan;99601.03;6098306;23;20258;-84
2023/01/02 04:57:21;;;;;;;4.90;3.27;;;;;;;8.74;nan;99607.13;6072909;23;20170;-85
2023/01/02 04:59:47;;;;;;;4.20;3.10;;;;;;;8.76;nan;99610.50;6097717;23;20225;-85
2023/01/02 05:02:12;;;;;;;6.67;5.20;;;;;;;8.78;nan;99616.50;6098505;23;20160;-84
2023/01/02 05:04:38;;;;;;;5.10;3.23;;;;;;;8.83;nan;99608.38;6070720;23;20484;-85
2023/01/02 05:07:03;;;;;;;5.60;3.13;;;;;;;8.87;nan;99617.75;6098799;23;20176;-85
2023/01/02 05:09:29;;;;;;;5.47;3.50;;;;;;;8.87;nan;99609.91;6107878;23;20186;-85
2023/01/02 05:11:54;;;;;;;3.10;2.50;;;;;;;8.90;nan;99611.50;6100048;23;20403;-85
2023/01/02 05:14:20;;;;;;;3.50;2.33;;;;;;;8.91;nan;99613.19;6096846;23;20629;-85
2023/01/02 05:16:45;;;;;;;2.63;2.40;;;;;;;8.93;nan;99606.06;6117802;23;20224;-84
2023/01/02 05:19:11;;;;;;;5.80;2.63;;;;;;;8.95;nan;99610.31;6127757;23;20182;-85
2023/01/02 05:24:21;;;;;;;5.60;3.45;;;;;;;9.04;nan;99609.75;6128436;23;20197;-85
2023/01/02 05:26:46;;;;;;;3.40;2.67;;;;;;;9.09;nan;99617.38;6128723;23;20256;-85
2023/01/02 05:29:12;;;;;;;4.50;2.87;;;;;;;9.13;nan;99610.16;6128995;23;20185;-85
2023/01/02 05:31:37;;;;;;;2.87;2.03;;;;;;;9.18;nan;99622.09;6128386;23;20205;-84
2023/01/02 05:34:02;;;;;;;5.63;2.60;;;;;;;9.29;nan;99624.09;6125801;23;20395;-85
2023/01/02 05:36:28;;;;;;;4.70;2.87;;;;;;;9.39;nan;99625.22;6125842;23;20173;-85
2023/01/02 05:38:54;;;;;;;6.57;2.27;;;;;;;9.52;nan;99631.44;6125684;23;20180;-84
2023/01/02 05:41:20;;;;;;;6.87;4.37;;;;;;;9.63;nan;99629.97;6084062;23;20235;-85
2023/01/02 05:43:45;;;;;;;4.25;2.63;;;;;;;9.69;nan;99642.72;6071254;23;20245;-85
2023/01/02 05:46:14;;;;;;;4.40;3.10;;;;;;;9.70;nan;99639.19;6096801;23;20181;-86
2023/01/02 05:48:40;;;;;;;4.40;3.05;;;;;;;9.65;nan;99633.34;6071327;23;20180;-85
2023/01/02 05:51:08;;;;;;;3.65;2.20;;;;;;;9.58;nan;99640.72;6097061;23;20200;-85
2023/01/02 05:53:34;;;;;;;5.93;2.60;;;;;;;9.51;nan;99635.00;6070888;23;20483;-85
2023/01/02 05:56:11;;;;;;;2.55;2.10;;;;;;;9.51;nan;99639.41;6070664;23;20202;-85
2023/01/02 05:58:39;;;;;;;3.38;2.50;;;;;;;9.57;nan;99643.47;6096614;23;20172;-85
2023/01/02 06:01:11;;;;;;;3.60;2.15;;;;;;;9.64;nan;99648.25;6096228;23;20298;-85
2023/01/02 06:03:37;;;;;;;5.00;2.17;;;;;;;9.73;nan;99655.56;6096191;23;20195;-84
2023/01/02 06:06:07;;;;;;;3.50;1.70;;;;;;;9.82;nan;99664.66;6095848;23;20181;-85
2023/01/02 06:08:33;;;;;;;3.38;2.15;;;;;;;9.90;nan;99664.22;6096967;23;20618;-85
2023/01/02 06:10:59;;;;;;;4.37;2.23;;;;;;;9.94;nan;99661.31;6095323;23;20214;-85
2023/01/02 06:13:28;;;;;;;7.65;2.53;;;;;;;9.99;nan;99663.69;6095835;23;20197;-84
2023/01/02 06:15:54;;;;;;;5.00;2.28;;;;;;;10.03;nan;99666.94;6070578;23;20626;-84
2023/01/02 06:18:20;;;;;;;5.25;2.28;;;;;;;10.12;nan;99658.50;6095214;23;20170;-85
2023/01/02 06:20:45;;;;;;;6.50;2.53;;;;;;;10.26;nan;99661.16;6095648;23;20196;-85
2023/01/02 06:23:11;;;;;;;4.03;2.47;;;;;;;10.38;nan;99660.41;6095375;23;20416;-84
2023/01/02 06:25:37;;;;;;;3.27;1.90;;;;;;;10.51;nan;99651.78;6095590;23;20329;-85
2023/01/02 06:28:02;;;;;;;3.53;1.87;;;;;;;10.63;nan;99656.25;6095533;23;20177;-85
2023/01/02 06:30:28;;;;;;;4.60;2.80;;;;;;;10.71;nan;99659.22;6069792;23;20199;-85
2023/01/02 06:32:57;;;;;;;6.80;2.13;;;;;;;10.77;nan;99661.47;6095540;23;20180;-85
2023/01/02 06:35:22;;;;;;;2.30;2.10;;;;;;;10.79;nan;99661.38;6068993;23;20172;-85
2023/01/02 06:37:48;;;;;;;2.20;2.00;;;;;;;10.81;nan;99662.13;6096210;23;20173;-85
2023/01/02 06:40:14;;;;;;;2.50;1.90;;;;;;;10.79;nan;99664.84;6098069;23;20199;-85
2023/01/02 06:42:43;;;;;;;3.33;1.60;;;;;;;10.79;nan;99672.72;6124633;23;20171;-84
2023/01/02 06:45:09;;;;;;;2.38;2.15;;;;;;;10.80;nan;99674.44;6123515;23;20225;-84
2023/01/02 06:47:35;;;;;;;2.60;1.90;;;;;;;10.81;nan;99662.97;6123944;23;20175;-84
2023/01/02 06:50:01;;;;;;;3.03;2.25;;;;;;;10.89;nan;99659.84;6124684;23;20197;-85
2023/01/02 06:52:30;;;;;;;3.67;1.80;;;;;;;11.00;nan;99660.00;6128978;23;20205;-85
2023/01/02 06:54:55;;;;;;;1.70;1.60;;;;;;;11.13;nan;99665.31;6125514;23;20180;-85
2023/01/02 06:57:21;;;;;;;2.90;1.50;;;;;;;11.24;nan;99665.44;6126346;23;20255;-85
2023/01/02 06:59:46;;;;;;;3.07;2.10;;;;;;;11.33;nan;99664.00;6126432;23;20267;-85
2023/01/02 07:02:12;;;;;;;4.43;1.97;;;;;;;11.40;nan;99678.44;6128742;23;20195;-85
2023/01/02 07:04:38;;;;;;;5.57;2.03;;;;;;;11.45;nan;99672.84;6123887;23;20371;-85
2023/01/02 07:07:04;;;;;;;2.13;1.57;;;;;;;11.51;nan;99669.84;6125529;23;20177;-84
2023/01/02 07:09:30;;;;;;;2.03;1.65;;;;;;;11.59;nan;99666.69;6125569;23;20477;-85
2023/01/02 07:11:57;;;;;;;5.73;1.60;;;;;;;11.70;nan;99674.72;6124904;23;20200;-84
2023/01/02 07:14:23;;;;;;;2.17;1.60;;;;;;;11.80;nan;99677.56;6124926;23;20435;-85
2023/01/02 07:16:48;;;;;;;3.00;2.58;;;;;;;11.87;nan;99665.69;6123286;23;20180;-85
2023/01/02 07:19:14;;;;;;;4.87;2.00;;;;;;;11.94;nan;99672.25;6122767;23;20192;-84
2023/01/02 07:21:39;;;;;;;1.63;1.20;;;;;;;11.99;nan;99688.56;6123221;23;20181;-85
2023/01/02 07:24:05;;;;;;;2.70;1.60;;;;;;;12.08;nan;99687.09;6124887;23;20160;-85
2023/01/02 07:26:31;;;;;;;8.50;2.53;;;;;;;12.15;nan;99686.56;6125938;23;20165;-85
2023/01/02 07:28:56;;;;;;;2.60;1.63;;;;;;;12.21;nan;99701.09;6124297;23;20310;-85
2023/01/02 07:31:21;;;;;;;3.40;1.57;;;;;;;12.27;nan;99695.41;6123444;23;20191;-85
2023/01/02 07:33:47;;;;;;;5.70;1.80;;;;;;;12.33;nan;99694.13;6124438;23;20398;-85
2023/01/02 07:36:15;;;;;;;2.73;1.80;;;;;;;12.39;nan;99705.09;6124235;23;20650;-85
2023/01/02 07:38:41;;;;;;;4.90;2.33;;;;;;;12.44;nan;99704.75;6123929;23;20401;-84
2023/01/02 07:41:16;;;;;;;4.30;1.70;;;;;;;12.50;nan;99696.44;6122071;23;20204;-84
2023/01/02 07:43:43;;;;;;;6.82;1.92;;;;;;;12.54;nan;99711.06;6123503;23;20490;-85
2023/01/02 07:46:08;;;;;;;8.10;2.83;;;;;;;12.55;nan;99714.56;6123624;23;20172;-85
2023/01/02 07:48:34;;;;;;;4.80;2.50;;;;;;;12.56;nan;99711.81;6123625;23;20175;-84
2023/01/02 07:51:01;;;;;;;2.47;1.57;;;;;;;12.55;nan;99714.56;6121750;23;20411;-84
2023/01/02 07:53:27;;;;;;;2.22;2.03;;;;;;;12.55;nan;99715.38;6123153;23;20237;-84
2023/01/02 07:55:54;;;;;;;3.20;1.97;;;;;;;12.60;nan;99722.97;6125315;23;20189;-85
2023/01/02 07:58:20;;;;;;;4.72;1.80;;;;;;;12.63;nan;99720.97;6128371;23;20189;-85
2023/01/02 08:00:46;;;;;;;3.67;1.83;;;;;;;12.68;nan;99733.81;6124982;23;20177;-85
2023/01/02 08:03:11;;;;;;;5.23;2.00;;;;;;;12.72;nan;99722.13;6128431;23;20169;-85
2023/01/02 08:05:37;;;;;;;3.50;2.10;;;;;;;12.76;nan;99726.22;6130107;23;20183;-85
2023/01/02 08:08:02;;;;;;;4.67;2.17;;;;;;;12.80;nan;99735.59;6123599;23;20184;-85
2023/01/02 08:10:27;;;;;;;2.63;1.80;;;;;;;12.84;nan;99736.22;6121646;23;20193;-85
2023/01/02 08:12:53;;;;;;;3.03;1.90;;;;;;;12.84;nan;99733.59;6118876;23;20512;-85
2023/01/02 08:15:18;;;;;;;9.20;1.93;;;;;;;12.86;nan;99739.59;6122968;23;20259;-85
2023/01/02 08:17:43;;;;;;;2.70;1.67;;;;;;;12.87;nan;99741.28;6120258;23;20230;-85
2023/01/02 08:20:10;;;;;;;2.90;1.60;;;;;;;12.92;nan;99747.06;6120805;23;20183;-85
2023/01/02 08:22:36;;;;;;;3.72;2.05;;;;;;;12.97;nan;99747.56;6120628;23;20302;-85
2023/01/02 08:25:02;;;;;;;3.83;2.47;;;;;;;13.00;nan;99754.44;6120565;23;20170;-85
2023/01/02 08:27:28;;;;;;;7.03;3.78;;;;;;;13.03;nan;99762.13;6120369;23;20240;-85
2023/01/02 08:29:53;;;;;;;23.33;4.07;;;;;;;13.05;nan;99755.78;6121965;23;20249;-85
2023/01/02 08:32:18;;;;;;;5.33;3.00;;;;;;;13.09;nan;99761.66;6166938;23;20325;-85
2023/01/02 08:34:44;;;;;;;10.20;3.77;;;;;;;13.12;nan;99750.06;6119502;23;20180;-86
2023/01/02 08:37:09;;;;;;;5.50;3.10;;;;;;;13.17;nan;99761.13;6121101;23;20149;-85
2023/01/02 08:39:34;;;;;;;4.70;2.37;;;;;;;13.20;nan;99758.25;6120183;23;20188;-85
2023/01/02 08:42:00;;;;;;;5.70;2.70;;;;;;;13.23;nan;99764.19;6118893;23;20524;-85
2023/01/02 08:44:25;;;;;;;5.70;2.50;;;;;;;13.26;nan;99766.63;6120026;23;20155;-85
2023/01/02 08:46:51;;;;;;;6.53;3.20;;;;;;;13.29;nan;99778.75;6121960;23;20160;-86
2023/01/02 08:49:16;;;;;;;3.70;2.40;;;;;;;13.31;nan;99782.09;6119976;23;20164;-85
2023/01/02 08:51:41;;;;;;;4.57;2.37;;;;;;;13.34;nan;99800.38;6117572;23;20266;-84
2023/01/02 08:54:07;;;;;;;4.60;2.77;;;;;;;13.36;nan;99802.88;6120735;23;20159;-85
2023/01/02 08:56:32;;;;;;;5.60;2.30;;;;;;;13.42;nan;99807.72;6119198;23;20472;-85
2023/01/02 08:59:04;;;;;;;5.40;3.30;;;;;;;13.49;nan;99801.03;6119215;23;20152;-84
2023/01/02 09:01:30;;;;;;;3.65;2.53;;;;;;;13.53;nan;99809.56;6120168;23;20171;-85
2023/01/02 09:03:57;;;;;;;4.45;2.10;;;;;;;13.58;nan;99807.44;6119182;23;20465;-84
2023/01/02 09:06:25;;;;;;;3.15;1.55;;;;;;;13.65;nan;99812.16;6120033;23;20179;-84
2023/01/02 09:08:51;;;;;;;2.72;2.17;;;;;;;13.74;nan;99815.91;6121695;23;20611;-87
2023/01/02 09:11:20;;;;;;;6.15;2.67;;;;;;;13.83;nan;99815.25;6122480;23;20195;-88
2023/01/02 09:13:46;;;;;;;3.92;3.45;;;;;;;13.93;nan;99825.97;6123346;23;20164;-87
2023/01/02 09:16:11;;;;;;;3.60;1.70;;;;;;;14.01;nan;99833.34;6122483;23;20166;-87
2023/01/02 09:18:38;;;;;;;3.00;1.70;;;;;;;14.08;nan;99835.41;6122036;23;20152;-88
2023/01/02 09:21:04;;;;;;;5.45;2.15;;;;;;;14.14;nan;99844.66;6122521;23;20172;-87
2023/01/02 09:23:31;;;;;;;4.37;2.20;;;;;;;14.23;nan;99843.13;6122714;23;20203;-87
2023/01/02 09:26:01;;;;;;;4.80;3.17;;;;;;;14.31;nan;99841.63;6122536;23;20783;-88
2023/01/02 09:28:27;;;;;;;6.70;3.38;;;;;;;14.36;nan;99838.59;6123065;23;20239;-87
2023/01/02 09:30:53;;;;;;;10.40;2.17;;;;;;;14.42;nan;99858.44;6124332;23;20191;-87
2023/01/02 09:33:19;;;;;;;4.50;2.57;;;;;;;14.49;nan;99852.59;6124744;23;20164;-88
2023/01/02 09:35:44;;;;;;;7.93;2.90;;;;;;;14.58;nan;99854.56;6131790;23;20518;-87
2023/01/02 09:38:09;;;;;;;2.60;2.20;;;;;;;14.67;nan;99863.59;6135171;23;20167;-87
2023/01/02 09:40:37;;;;;;;12.40;3.73;;;;;;;14.77;nan;99869.88;6135608;23;20199;-86
2023/01/02 09:43:03;;;;;;;4.95;2.17;;;;;;;14.90;nan;99863.63;6130841;23;20187;-87
2023/01/02 09:45:29;;;;;;;2.93;1.80;;;;;;;15.10;nan;99865.56;6130174;23;20168;-87
2023/01/02 09:47:58;;;;;;;4.13;1.80;;;;;;;15.33;nan;99862.91;6128977;23;20198;-87
2023/01/02 09:50:26;;;;;;;6.72;2.92;;;;;;;15.53;nan;99872.75;6131572;23;20183;-87
2023/01/02 09:52:56;;;;;;;6.25;1.85;;;;;;;15.68;nan;99866.22;6132847;23;20156;-87
2023/01/02 09:55:56;;;;;;;4.47;2.15;;;;;;;15.88;nan;99880.53;6133686;23;20171;-87
2023/01/02 09:58:31;;;;;;;6.70;2.35;;;;;;;16.01;nan;99877.69;6132576;23;20183;-87
2023/01/02 10:00:58;;;;;;;4.97;1.95;;;;;;;16.23;nan;99875.94;6129274;23;20650;-87
2023/01/02 10:03:44;;;;;;;3.10;1.58;;;;;;;16.34;nan;99863.47;6123161;23;20077;-87
2023/01/02 10:06:27;;;;;;;6.40;2.33;;;;;;;16.46;nan;99874.84;6128671;23;20160;-87
2023/01/02 10:09:03;;;;;;;5.85;2.80;;;;;;;16.72;nan;99875.31;6134709;23;20160;-87
2023/01/02 10:11:49;;;;;;;6.80;1.83;;;;;;;16.98;nan;99872.25;6130583;23;20191;-87
2023/01/02 10:14:48;;;;;;;2.60;1.42;;;;;;;16.95;nan;99877.84;6129216;23;20164;-87
2023/01/02 10:17:16;;;;;;;7.60;3.10;;;;;;;16.72;nan;99871.84;6117800;23;20740;-86
2023/01/02 10:19:58;;;;;;;5.68;2.10;;;;;;;16.53;nan;99875.19;6119242;23;20238;-87
2023/01/02 10:22:41;;;;;;;4.78;2.90;;;;;;;16.41;nan;99873.56;6119468;23;20172;-87
2023/01/02 10:25:15;;;;;;;7.15;2.40;;;;;;;16.36;nan;99882.75;6119495;23;20152;-87
2023/01/02 10:28:13;;;;;;;7.03;2.28;;;;;;;16.25;nan;99884.59;6119402;23;20156;-87
2023/01/02 10:30:47;;;;;;;4.60;2.85;;;;;;;16.13;nan;99887.31;6118153;23;20215;-87
2023/01/02 10:33:45;;;;;;;6.55;3.53;;;;;;;16.03;nan;99881.06;6119909;23;20167;-87
2023/01/02 10:36:37;;;;;;;6.55;2.33;;;;;;;16.00;nan;99878.69;6119550;23;20191;-87
2023/01/02 10:39:07;;;;;;;2.78;2.40;;;;;;;16.01;nan;99877.69;6119376;23;20171;-87
2023/01/02 10:41:34;;;;;;;5.68;2.17;;;;;;;16.04;nan;99872.16;6119732;23;20198;-87
2023/01/02 10:44:11;;;;;;;3.15;2.45;;;;;;;16.01;nan;99875.03;6118658;23;20374;-87
2023/01/02 10:46:39;;;;;;;8.32;3.65;;;;;;;16.02;nan;99876.75;6119074;23;20148;-87
2023/01/02 10:49:07;;;;;;;7.88;2.90;;;;;;;16.05;nan;99873.00;6119137;23;20151;-87
2023/01/02 10:51:36;;;;;;;4.00;2.00;;;;;;;16.04;nan;99872.16;6119177;23;20192;-87
2023/01/02 10:54:05;;;;;;;7.47;2.60;;;;;;;16.11;nan;99870.69;6166644;23;20156;-87
2023/01/02 10:56:33;;;;;;;7.35;2.85;;;;;;;16.22;nan;99877.75;6119407;23;20164;-87
2023/01/02 10:58:59;;;;;;;3.70;2.55;;;;;;;16.35;nan;99872.28;6118793;23;20168;-87
2023/01/02 11:01:25;;;;;;;6.27;3.30;;;;;;;16.49;nan;99868.47;6128370;23;20148;-87
2023/01/02 11:03:56;;;;;;;5.80;2.92;;;;;;;16.60;nan;99869.22;6119059;23;20393;-87
2023/01/02 11:06:29;;;;;;;5.28;2.30;;;;;;;16.67;nan;99874.03;6118582;23;20218;-87
2023/01/02 11:09:03;;;;;;;5.72;2.75;;;;;;;16.72;nan;99875.31;6119074;23;20164;-87
2023/01/02 11:11:31;;;;;;;9.15;2.45;;;;;;;16.84;nan;99862.00;6119834;23;20186;-87
2023/01/02 11:14:05;;;;;;;8.43;2.50;;;;;;;17.01;nan;99862.25;6119815;23;20398;-87
2023/01/02 11:16:32;;;;;;;6.68;2.90;;;;;;;17.18;nan;99865.25;6119969;23;20243;-87
2023/01/02 11:19:00;;;;;;;3.58;2.42;;;;;;;17.34;nan;99860.28;6119236;23;20403;-87
2023/01/02 11:21:39;;;;;;;5.97;2.60;;;;;;;17.41;nan;99860.56;6119166;23;20281;-87
2023/01/02 11:24:13;;;;;;;7.97;2.42;;;;;;;17.45;nan;99864.66;6119229;23;20149;-87
2023/01/02 11:26:39;;;;;;;4.15;2.78;;;;;;;17.49;nan;99871.34;6118919;23;20445;-87
2023/01/02 11:29:11;;;;;;;6.63;2.00;;;;;;;17.47;nan;99866.19;6119522;23;20160;-87
2023/01/02 11:31:46;;;;;;;7.85;3.42;;;;;;;17.48;nan;99851.91;6119136;23;20169;-87
2023/01/02 11:34:25;;;;;;;3.13;2.30;;;;;;;17.53;nan;99848.03;6119980;23;20155;-87
2023/01/02 11:37:11;;;;;;;3.20;2.30;;;;;;;17.54;nan;99857.66;6119658;23;20244;-87
2023/01/02 11:39:37;;;;;;;7.90;2.75;;;;;;;17.56;nan;99851.25;6113874;23;20161;-87
2023/01/02 11:45:04;;;;;;;4.93;2.40;;;;;;;17.61;nan;99858.81;6119212;23;20166;-87
2023/01/02 11:47:35;;;;;;;4.70;2.42;;;;;;;17.68;nan;99851.97;6119685;23;20177;-87
2023/01/02 11:50:02;;;;;;;4.95;2.70;;;;;;;17.74;nan;99854.09;6089016;23;20209;-87
2023/01/02 11:52:40;;;;;;;3.42;2.30;;;;;;;17.83;nan;99855.09;6065718;23;20242;-87
2023/01/02 11:55:41;;;;;;;7.57;2.13;;;;;;;17.91;nan;99861.41;6091438;23;20491;-87
2023/01/02 11:58:45;;;;;;;4.37;2.23;;;;;;;17.96;nan;99857.47;6089777;23;20163;-88
2023/01/02 12:01:29;;;;;;;9.40;2.90;;;;;;;17.98;nan;99860.84;6089165;23;20418;-87
2023/01/02 12:03:55;;;;;;;6.72;3.58;;;;;;;17.92;nan;99855.09;6064618;23;20748;-87
2023/01/02 12:06:36;;;;;;;4.90;1.93;;;;;;;17.86;nan;99858.31;6089864;23;20219;-88
2023/01/02 12:09:10;;;;;;;3.67;2.20;;;;;;;17.82;nan;99867.56;6067929;23;20185;-87
2023/01/02 12:12:07;;;;;;;6.88;1.73;;;;;;;17.80;nan;99861.53;6066053;23;20497;-87
2023/01/02 12:14:38;;;;;;;8.40;3.60;;;;;;;17.75;nan;99869.03;6091470;23;20163;-87
2023/01/02 12:17:11;;;;;;;9.05;2.13;;;;;;;17.69;nan;99866.94;6091222;23;20384;-88